Time;durP1;ratioP1;P1;durP2;ratioP2;P2;SDS_P1;SDS_P2;PMS_P1;PMS_P2;Temp;Humidity;BMP_temperature;BMP_pressure;BME280_temperature;BME280_humidity;BME280_pressure;Samples;Min_cycle;Max_cycle;Signal;HPM_P1;HPM_P2
2022/11/06 00:01:39;;;;;;;5.55;3.83;;;6.50;96.70;;;;;;5090267;28;20290;-66
2022/11/06 00:04:06;;;;;;;4.70;3.40;;;6.40;96.80;;;;;;5085981;28;20185;-67
2022/11/06 00:06:51;;;;;;;6.10;4.43;;;6.30;96.80;;;;;;5091335;28;20314;-66
2022/11/06 00:09:21;;;;;;;6.82;3.80;;;6.30;96.90;;;;;;5091260;28;20191;-65
2022/11/06 00:11:50;;;;;;;4.57;3.17;;;6.20;97.00;;;;;;5092171;28;20181;-66
2022/11/06 00:14:17;;;;;;;5.35;3.40;;;6.20;97.00;;;;;;5091659;28;20216;-66
2022/11/06 00:16:46;;;;;;;4.03;3.05;;;6.20;97.10;;;;;;5091879;28;20221;-66
2022/11/06 00:19:13;;;;;;;3.72;2.90;;;6.10;97.30;;;;;;5091515;28;20234;-65
2022/11/06 00:21:40;;;;;;;7.45;5.30;;;6.10;97.10;;;;;;5092105;28;20189;-66
2022/11/06 00:24:10;;;;;;;5.53;3.88;;;6.10;97.30;;;;;;5091491;28;20177;-66
2022/11/06 00:26:40;;;;;;;4.78;3.25;;;6.20;97.10;;;;;;5093656;28;20266;-67
2022/11/06 00:29:07;;;;;;;3.92;2.92;;;6.20;96.90;;;;;;5095132;28;20264;-65
2022/11/06 00:31:37;;;;;;;3.50;3.10;;;6.20;96.80;;;;;;5095661;28;20525;-67
2022/11/06 00:34:06;;;;;;;4.40;2.58;;;6.10;96.90;;;;;;5095229;28;20189;-66
2022/11/06 00:36:34;;;;;;;5.22;2.70;;;6.00;96.80;;;;;;5095497;28;20294;-66
2022/11/06 00:39:01;;;;;;;3.38;2.33;;;6.00;96.90;;;;;;5094985;28;20189;-67
2022/11/06 00:41:29;;;;;;;4.13;2.70;;;5.90;96.70;;;;;;5095584;28;20235;-66
2022/11/06 00:43:58;;;;;;;3.72;2.55;;;5.90;96.80;;;;;;5094998;28;20681;-67
2022/11/06 00:46:26;;;;;;;3.80;2.50;;;6.00;96.90;;;;;;5095390;28;20242;-67
2022/11/06 00:48:54;;;;;;;4.05;2.78;;;6.00;96.90;;;;;;5095271;28;20229;-66
2022/11/06 00:51:24;;;;;;;3.55;2.60;;;5.90;96.70;;;;;;5095033;28;20619;-66
2022/11/06 00:53:57;;;;;;;3.63;2.53;;;5.80;96.90;;;;;;5094806;28;20196;-66
2022/11/06 00:56:25;;;;;;;3.30;2.50;;;5.80;96.80;;;;;;5095250;28;20224;-66
2022/11/06 00:58:53;;;;;;;3.70;2.65;;;5.80;96.70;;;;;;5094727;28;20177;-66
2022/11/06 01:01:23;;;;;;;2.90;2.13;;;5.80;96.50;;;;;;5095255;28;20207;-66
2022/11/06 01:03:53;;;;;;;3.65;2.78;;;5.80;96.60;;;;;;5095140;28;20177;-67
2022/11/06 01:06:23;;;;;;;4.22;2.30;;;5.80;96.50;;;;;;5095136;28;20228;-66
2022/11/06 01:08:51;;;;;;;3.70;2.20;;;5.80;96.00;;;;;;5094446;28;20208;-67
2022/11/06 01:11:21;;;;;;;3.78;2.80;;;5.80;95.70;;;;;;5095166;28;20577;-66
2022/11/06 01:13:50;;;;;;;2.95;2.05;;;5.70;95.90;;;;;;5094499;28;20185;-66
2022/11/06 01:16:18;;;;;;;3.35;2.00;;;5.70;95.80;;;;;;5094867;28;20209;-66
2022/11/06 01:18:48;;;;;;;3.50;2.90;;;5.70;96.00;;;;;;5094583;28;20185;-67
2022/11/06 01:21:21;;;;;;;6.22;2.78;;;5.60;95.90;;;;;;5094816;28;20185;-66
2022/11/06 01:23:53;;;;;;;4.57;2.75;;;5.50;95.00;;;;;;5094647;28;20209;-66
2022/11/06 01:26:20;;;;;;;3.70;3.22;;;5.30;94.60;;;;;;5094527;28;20231;-66
2022/11/06 01:28:49;;;;;;;4.30;2.65;;;5.10;93.90;;;;;;5094179;28;20185;-66
2022/11/06 01:31:19;;;;;;;3.55;2.42;;;5.10;94.10;;;;;;5094595;28;20653;-66
2022/11/06 01:33:48;;;;;;;3.35;2.10;;;5.10;94.40;;;;;;5094620;28;20622;-66
2022/11/06 01:36:17;;;;;;;3.72;2.50;;;5.00;94.60;;;;;;5094158;28;20233;-67
2022/11/06 01:38:46;;;;;;;4.25;2.80;;;5.00;95.00;;;;;;5093769;28;20208;-66
2022/11/06 01:41:14;;;;;;;5.50;3.30;;;5.10;95.30;;;;;;5094462;28;20230;-66
2022/11/06 01:43:49;;;;;;;7.63;3.30;;;5.10;95.70;;;;;;5093751;28;20288;-73
2022/11/06 01:46:17;;;;;;;5.18;3.40;;;5.10;96.00;;;;;;5093594;28;20188;-66
2022/11/06 01:48:54;;;;;;;16.40;4.32;;;5.20;96.20;;;;;;5093819;28;20201;-72
2022/11/06 01:51:24;;;;;;;17.33;4.90;;;5.20;96.50;;;;;;5094416;28;20214;-66
2022/11/06 01:53:52;;;;;;;5.95;3.72;;;5.20;96.50;;;;;;5094001;28;20185;-70
2022/11/06 01:56:20;;;;;;;8.10;3.58;;;5.30;96.20;;;;;;5073802;28;20675;-66
2022/11/06 01:58:51;;;;;;;12.45;4.32;;;5.20;95.90;;;;;;5074106;28;20186;-73
2022/11/06 02:01:18;;;;;;;19.15;6.30;;;5.20;96.00;;;;;;5093801;28;20185;-67
2022/11/06 02:03:51;;;;;;;32.70;7.45;;;5.10;96.10;;;;;;5093423;28;20186;-66
2022/11/06 02:06:20;;;;;;;27.85;5.60;;;5.20;96.20;;;;;;5094079;28;20193;-66
2022/11/06 02:08:48;;;;;;;10.20;4.38;;;5.20;96.50;;;;;;5093470;28;20185;-66
2022/11/06 02:11:15;;;;;;;17.98;5.00;;;5.10;96.70;;;;;;5093798;28;20188;-66
2022/11/06 02:13:54;;;;;;;21.15;4.97;;;5.10;97.10;;;;;;5093325;28;20195;-66
2022/11/06 02:16:27;;;;;;;24.00;5.45;;;5.00;97.40;;;;;;5093941;28;20196;-66
2022/11/06 02:19:08;;;;;;;18.17;4.45;;;5.00;97.40;;;;;;5093112;28;20181;-67
2022/11/06 02:22:05;;;;;;;27.63;5.32;;;5.00;97.70;;;;;;5093641;28;20192;-66
2022/11/06 02:25:08;;;;;;;10.73;2.85;;;4.80;98.00;;;;;;5093120;28;20181;-67
2022/11/06 02:27:38;;;;;;;8.40;3.60;;;4.70;98.60;;;;;;5093174;28;20295;-66
2022/11/06 02:30:08;;;;;;;12.90;3.60;;;4.60;99.10;;;;;;5093073;28;20177;-67
2022/11/06 02:32:39;;;;;;;8.82;3.50;;;4.50;99.00;;;;;;5093438;28;20196;-66
2022/11/06 02:35:16;;;;;;;10.98;3.20;;;4.30;99.00;;;;;;5093053;28;20238;-66
2022/11/06 02:37:46;;;;;;;5.22;2.65;;;4.40;99.50;;;;;;5092887;28;20223;-66
2022/11/06 02:40:16;;;;;;;5.03;2.92;;;4.40;99.60;;;;;;5092665;28;20213;-66
2022/11/06 02:42:49;;;;;;;6.03;3.10;;;4.50;99.40;;;;;;5093353;28;20185;-66
2022/11/06 02:45:23;;;;;;;4.75;2.70;;;4.50;99.40;;;;;;5092832;28;20181;-66
2022/11/06 02:47:54;;;;;;;7.45;2.83;;;4.60;99.30;;;;;;5093008;28;20193;-66
2022/11/06 02:50:27;;;;;;;5.93;3.90;;;4.60;98.70;;;;;;5092641;28;20272;-66
2022/11/06 02:52:57;;;;;;;6.30;3.72;;;4.50;98.30;;;;;;5093151;28;20200;-68
2022/11/06 02:55:29;;;;;;;4.75;3.00;;;4.50;98.30;;;;;;5092358;28;20669;-66
2022/11/06 02:58:01;;;;;;;6.55;3.50;;;4.50;98.40;;;;;;5092988;28;20219;-71
2022/11/06 03:00:29;;;;;;;5.05;2.80;;;4.50;98.20;;;;;;5092867;28;20196;-66
2022/11/06 03:03:01;;;;;;;4.72;3.20;;;4.60;98.40;;;;;;5092571;28;20217;-66
2022/11/06 03:05:32;;;;;;;7.50;3.45;;;4.70;98.00;;;;;;5092808;28;20185;-66
2022/11/06 03:08:07;;;;;;;12.63;3.67;;;4.70;98.00;;;;;;5092737;28;20185;-66
2022/11/06 03:10:42;;;;;;;5.03;2.80;;;4.70;97.50;;;;;;5092848;28;20184;-66
2022/11/06 03:13:18;;;;;;;4.18;2.75;;;4.70;97.40;;;;;;5092413;28;20192;-66
2022/11/06 03:15:54;;;;;;;7.05;2.55;;;4.60;97.00;;;;;;5092829;28;20646;-66
2022/11/06 03:18:33;;;;;;;13.10;2.25;;;4.60;96.70;;;;;;5092509;28;20208;-66
2022/11/06 03:21:05;;;;;;;3.58;2.13;;;4.50;96.00;;;;;;5092430;28;20603;-66
2022/11/06 03:23:36;;;;;;;11.68;2.88;;;4.40;96.20;;;;;;5092705;28;20197;-66
2022/11/06 03:26:12;;;;;;;7.38;3.22;;;4.30;96.30;;;;;;5091891;28;20209;-66
2022/11/06 03:28:47;;;;;;;8.02;2.90;;;4.20;96.40;;;;;;5092512;28;20176;-66
2022/11/06 03:31:20;;;;;;;6.20;2.80;;;4.20;96.60;;;;;;5091793;28;20216;-66
2022/11/06 03:33:52;;;;;;;5.90;3.55;;;4.10;97.00;;;;;;5092434;28;20185;-66
2022/11/06 03:36:23;;;;;;;9.65;3.40;;;4.10;97.20;;;;;;5092211;28;20196;-66
2022/11/06 03:38:54;;;;;;;8.30;3.28;;;4.10;97.30;;;;;;5092386;28;20216;-66
2022/11/06 03:41:25;;;;;;;9.38;3.80;;;4.10;97.40;;;;;;5091750;28;20192;-66
2022/11/06 03:44:01;;;;;;;11.85;4.18;;;4.10;97.60;;;;;;5092470;28;20220;-67
2022/11/06 03:46:32;;;;;;;9.20;3.47;;;4.20;97.90;;;;;;5092262;28;20470;-66
2022/11/06 03:49:03;;;;;;;20.83;3.10;;;4.20;98.00;;;;;;5092275;28;20216;-66
2022/11/06 03:51:40;;;;;;;15.07;3.35;;;4.20;98.10;;;;;;5092156;28;20181;-66
2022/11/06 03:54:13;;;;;;;10.43;3.90;;;4.10;98.30;;;;;;5092190;28;20234;-65
2022/11/06 03:56:45;;;;;;;13.10;4.07;;;4.10;98.70;;;;;;5091861;28;20309;-65
2022/11/06 03:59:18;;;;;;;6.72;3.53;;;4.10;98.90;;;;;;5092227;28;20288;-66
2022/11/06 04:01:49;;;;;;;23.75;3.70;;;4.10;99.10;;;;;;5095641;28;20189;-66
2022/11/06 04:04:21;;;;;;;11.00;3.28;;;4.00;99.00;;;;;;5096637;28;20181;-65
2022/11/06 04:06:53;;;;;;;8.57;3.15;;;3.90;99.30;;;;;;5096074;28;20189;-65
2022/11/06 04:15:03;;;;;;;7.28;3.67;;;3.80;99.40;;;;;;5096520;28;20233;-66
2022/11/06 04:17:32;;;;;;;9.35;3.53;;;3.70;99.10;;;;;;5095677;28;20208;-66
2022/11/06 04:20:05;;;;;;;11.27;4.22;;;3.70;99.20;;;;;;5096207;28;20189;-69
2022/11/06 04:22:45;;;;;;;10.77;3.45;;;3.70;99.30;;;;;;5095765;28;20260;-66
2022/11/06 04:28:25;;;;;;;13.07;3.35;;;3.70;99.40;;;;;;5096220;28;20196;-66
2022/11/06 04:31:07;;;;;;;11.02;4.68;;;3.70;99.50;;;;;;5095701;28;20193;-67
2022/11/06 04:33:41;;;;;;;9.20;3.47;;;3.70;99.50;;;;;;5096011;28;20196;-65
2022/11/06 04:39:06;;;;;;;18.83;3.88;;;3.80;99.10;;;;;;5095683;28;20270;-66
2022/11/06 04:41:39;;;;;;;11.13;3.35;;;3.80;99.10;;;;;;5095421;28;20180;-65
2022/11/06 04:44:12;;;;;;;22.90;3.88;;;3.70;98.80;;;;;;5095676;28;20286;-65
2022/11/06 04:46:47;;;;;;;13.25;4.38;;;3.70;98.60;;;;;;5094849;28;20648;-66
2022/11/06 04:49:15;;;;;;;5.78;2.85;;;3.70;98.70;;;;;;5095545;28;20188;-65
2022/11/06 04:51:46;;;;;;;5.20;2.95;;;3.60;99.20;;;;;;5095149;28;20542;-65
2022/11/06 04:54:17;;;;;;;10.25;3.75;;;3.50;99.20;;;;;;5095443;28;20250;-65
2022/11/06 04:56:45;;;;;;;7.15;3.65;;;3.60;99.70;;;;;;5094851;28;20177;-66
2022/11/06 04:59:16;;;;;;;11.80;3.08;;;3.60;99.70;;;;;;5095334;28;20617;-66
2022/11/06 05:01:45;;;;;;;4.10;2.85;;;3.60;99.20;;;;;;5095063;28;20177;-65
2022/11/06 05:04:13;;;;;;;4.43;3.10;;;3.60;99.60;;;;;;5095397;28;20604;-66
2022/11/06 05:06:40;;;;;;;5.50;3.35;;;3.60;99.60;;;;;;5095184;28;20185;-65
2022/11/06 05:09:08;;;;;;;5.35;3.42;;;3.60;99.00;;;;;;5095440;28;20185;-65
2022/11/06 05:11:37;;;;;;;4.82;2.58;;;3.60;98.80;;;;;;5093871;28;20177;-66
2022/11/06 05:14:04;;;;;;;6.60;2.55;;;3.60;98.60;;;;;;5095206;28;20189;-66
2022/11/06 05:16:31;;;;;;;3.13;2.28;;;3.70;98.70;;;;;;5094708;28;20616;-65
2022/11/06 05:19:01;;;;;;;3.40;2.45;;;3.70;98.20;;;;;;5095158;28;20554;-66
2022/11/06 05:24:13;;;;;;;4.35;2.45;;;3.70;97.50;;;;;;5095491;28;20546;-67
2022/11/06 05:26:40;;;;;;;7.82;3.92;;;3.80;97.60;;;;;;5093830;28;20213;-65
2022/11/06 05:29:07;;;;;;;4.68;3.70;;;3.80;97.30;;;;;;5094772;28;20292;-65
2022/11/06 05:31:35;;;;;;;6.68;6.00;;;3.80;97.20;;;;;;5094594;28;20185;-65
2022/11/06 05:34:04;;;;;;;4.68;3.63;;;3.80;97.20;;;;;;5094929;28;20185;-65
2022/11/06 05:36:31;;;;;;;3.50;2.55;;;3.80;97.20;;;;;;5094764;28;20186;-66
2022/11/06 05:38:58;;;;;;;2.53;1.60;;;3.90;96.60;;;;;;5094694;28;20293;-65
2022/11/06 05:41:25;;;;;;;4.47;2.35;;;3.80;96.10;;;;;;5094443;28;20185;-66
2022/11/06 05:43:53;;;;;;;4.57;3.05;;;3.70;96.30;;;;;;5094717;28;20718;-67
2022/11/06 05:46:20;;;;;;;3.97;2.75;;;3.70;96.80;;;;;;5094260;28;20235;-66
2022/11/06 05:48:47;;;;;;;6.30;3.20;;;3.70;96.70;;;;;;5094516;28;20185;-65
2022/11/06 05:51:16;;;;;;;6.80;2.70;;;3.80;96.90;;;;;;5094195;28;20275;-65
2022/11/06 05:53:46;;;;;;;6.07;2.50;;;3.80;96.50;;;;;;5094575;28;20214;-65
2022/11/06 05:56:13;;;;;;;8.27;2.65;;;3.60;96.80;;;;;;5093875;28;20643;-65
2022/11/06 05:58:41;;;;;;;13.75;5.15;;;3.60;97.40;;;;;;5094305;28;20213;-66
2022/11/06 06:01:08;;;;;;;32.90;16.35;;;3.50;98.10;;;;;;5094077;28;20268;-65
2022/11/06 06:03:35;;;;;;;24.27;10.93;;;3.50;98.30;;;;;;5094401;28;20630;-65
2022/11/06 06:06:02;;;;;;;16.45;11.35;;;3.50;98.90;;;;;;5093964;28;20627;-66
2022/11/06 06:08:31;;;;;;;14.20;4.55;;;3.60;99.20;;;;;;5094250;28;20532;-66
2022/11/06 06:10:58;;;;;;;12.88;3.65;;;3.60;99.10;;;;;;5092956;28;20191;-66
2022/11/06 06:13:26;;;;;;;6.38;4.22;;;3.70;99.10;;;;;;5094112;28;20191;-66
2022/11/06 06:15:53;;;;;;;19.90;11.00;;;3.80;99.00;;;;;;5093460;28;20223;-65
2022/11/06 06:18:20;;;;;;;10.93;5.60;;;3.80;98.90;;;;;;5094005;28;20212;-66
2022/11/06 06:20:48;;;;;;;15.25;4.25;;;3.90;98.60;;;;;;5093545;28;20674;-65
2022/11/06 06:23:15;;;;;;;18.23;4.80;;;3.90;98.30;;;;;;5094084;28;20195;-65
2022/11/06 06:25:44;;;;;;;16.33;4.88;;;3.90;97.90;;;;;;5093017;28;20654;-65
2022/11/06 06:28:11;;;;;;;10.13;3.08;;;3.90;97.70;;;;;;5094255;28;20170;-66
2022/11/06 06:30:38;;;;;;;7.47;2.95;;;3.90;97.60;;;;;;5093205;28;20189;-66
2022/11/06 06:33:07;;;;;;;4.45;2.50;;;3.90;97.80;;;;;;5073709;28;20213;-66
2022/11/06 06:35:35;;;;;;;7.15;2.90;;;3.90;97.80;;;;;;5073361;28;20197;-65
2022/11/06 06:38:02;;;;;;;3.50;2.33;;;3.90;97.70;;;;;;5092767;28;20212;-66
2022/11/06 06:40:29;;;;;;;3.90;2.13;;;4.00;97.80;;;;;;5093827;28;20189;-66
2022/11/06 06:42:59;;;;;;;16.15;3.30;;;4.00;97.40;;;;;;5093158;28;20281;-68
2022/11/06 06:45:26;;;;;;;6.57;3.30;;;4.10;97.00;;;;;;5093133;28;20193;-66
2022/11/06 06:47:54;;;;;;;20.63;4.13;;;4.00;96.90;;;;;;5093349;28;20258;-66
2022/11/06 06:50:21;;;;;;;7.10;3.25;;;4.00;97.10;;;;;;5093126;28;20279;-66
2022/11/06 06:52:48;;;;;;;8.27;3.85;;;4.10;97.50;;;;;;5093449;28;20228;-65
2022/11/06 06:55:15;;;;;;;7.80;4.22;;;4.20;97.60;;;;;;5093223;28;20230;-65
2022/11/06 06:57:42;;;;;;;9.55;4.28;;;4.30;97.50;;;;;;5092824;28;20209;-65
2022/11/06 07:00:12;;;;;;;5.10;3.50;;;4.40;97.50;;;;;;5093509;28;20180;-65
2022/11/06 07:02:41;;;;;;;12.45;3.33;;;4.50;97.10;;;;;;5092752;28;20181;-66
2022/11/06 07:05:09;;;;;;;5.78;2.60;;;4.60;96.90;;;;;;5093231;28;20193;-65
2022/11/06 07:07:36;;;;;;;8.40;3.38;;;4.60;96.60;;;;;;5092531;28;20192;-65
2022/11/06 07:10:04;;;;;;;12.80;3.38;;;4.70;95.90;;;;;;5093196;28;20184;-66
2022/11/06 07:12:31;;;;;;;5.32;3.00;;;4.70;95.70;;;;;;5092634;28;20177;-72
2022/11/06 07:14:59;;;;;;;6.07;3.20;;;4.60;95.60;;;;;;5093236;28;20535;-67
2022/11/06 07:17:27;;;;;;;12.95;6.35;;;4.80;95.80;;;;;;5092192;28;20258;-65
2022/11/06 07:19:54;;;;;;;24.13;10.05;;;4.80;95.50;;;;;;5092809;28;20658;-66
2022/11/06 07:22:21;;;;;;;11.60;6.45;;;4.70;94.70;;;;;;5092790;28;20177;-65
2022/11/06 07:24:49;;;;;;;14.18;6.32;;;4.70;94.80;;;;;;5092971;28;20193;-65
2022/11/06 07:27:16;;;;;;;10.90;4.00;;;4.70;95.50;;;;;;5092530;28;20620;-66
2022/11/06 07:29:44;;;;;;;11.15;3.58;;;4.70;95.20;;;;;;5092841;28;20635;-65
2022/11/06 07:32:11;;;;;;;11.38;2.97;;;4.80;95.60;;;;;;5092310;28;20230;-65
2022/11/06 07:34:40;;;;;;;3.35;2.10;;;4.80;95.20;;;;;;5091987;28;20658;-66
2022/11/06 07:37:08;;;;;;;6.00;2.45;;;4.90;95.00;;;;;;5092580;28;20181;-65
2022/11/06 07:39:35;;;;;;;3.97;2.35;;;5.10;95.30;;;;;;5092202;28;20234;-66
2022/11/06 07:42:02;;;;;;;13.07;7.93;;;5.20;95.20;;;;;;5092099;28;20192;-67
2022/11/06 07:44:30;;;;;;;13.23;7.00;;;5.20;94.40;;;;;;5092568;28;20238;-66
2022/11/06 07:46:57;;;;;;;6.55;2.95;;;5.40;94.50;;;;;;5092291;28;20185;-65
2022/11/06 07:49:24;;;;;;;3.92;2.00;;;5.60;95.00;;;;;;5072612;28;20264;-66
2022/11/06 07:51:53;;;;;;;10.52;2.20;;;5.70;95.10;;;;;;5072488;28;20197;-65
2022/11/06 07:54:20;;;;;;;7.43;2.50;;;5.90;95.00;;;;;;5091713;28;20184;-65
2022/11/06 07:56:47;;;;;;;7.55;2.28;;;5.80;93.00;;;;;;5092317;28;20241;-65
2022/11/06 07:59:14;;;;;;;8.07;3.10;;;5.80;93.80;;;;;;5091995;28;20252;-65
2022/11/06 08:01:42;;;;;;;8.73;3.42;;;5.90;93.50;;;;;;5092388;28;20185;-65
2022/11/06 08:04:09;;;;;;;5.65;2.92;;;6.00;93.60;;;;;;5091918;28;20185;-66
2022/11/06 08:06:37;;;;;;;3.08;1.90;;;6.10;94.00;;;;;;5092301;28;20195;-65
2022/11/06 08:09:07;;;;;;;6.55;2.65;;;6.20;94.20;;;;;;5092164;28;20189;-66
2022/11/06 08:11:34;;;;;;;2.92;1.92;;;6.30;94.40;;;;;;5092384;28;20195;-66
2022/11/06 08:14:02;;;;;;;2.65;1.77;;;6.50;94.20;;;;;;5091242;28;20248;-66
2022/11/06 08:16:29;;;;;;;3.20;1.90;;;6.60;93.70;;;;;;5092434;28;20574;-66
2022/11/06 08:18:57;;;;;;;6.50;2.35;;;6.70;93.10;;;;;;5091785;28;20247;-66
2022/11/06 08:21:24;;;;;;;3.90;1.70;;;6.70;92.70;;;;;;5092192;28;20189;-67
2022/11/06 08:23:51;;;;;;;4.15;1.70;;;6.70;92.20;;;;;;5092153;28;20545;-65
2022/11/06 08:26:20;;;;;;;3.85;1.77;;;6.90;92.80;;;;;;5091952;28;20248;-66
2022/11/06 08:28:48;;;;;;;3.38;1.45;;;7.00;92.90;;;;;;5091965;28;20192;-66
2022/11/06 08:31:15;;;;;;;6.30;2.28;;;7.20;92.90;;;;;;5092042;28;20185;-66
2022/11/06 08:33:42;;;;;;;7.13;2.22;;;7.30;92.30;;;;;;5091711;28;20189;-67
2022/11/06 08:36:10;;;;;;;2.70;1.90;;;7.40;92.10;;;;;;5092398;28;20219;-66
2022/11/06 08:38:37;;;;;;;8.02;4.88;;;7.40;91.60;;;;;;5091480;28;20220;-66
2022/11/06 08:41:06;;;;;;;3.50;1.90;;;7.40;91.40;;;;;;5091971;28;20181;-66
2022/11/06 08:43:36;;;;;;;3.08;1.75;;;7.60;92.30;;;;;;5091457;28;20181;-66
2022/11/06 08:46:04;;;;;;;2.65;1.77;;;7.70;91.90;;;;;;5092045;28;20189;-67
2022/11/06 08:48:31;;;;;;;2.45;1.65;;;7.80;91.70;;;;;;5095220;28;20211;-66
2022/11/06 08:50:58;;;;;;;8.93;2.33;;;7.80;90.90;;;;;;5095835;28;20189;-66
2022/11/06 08:53:25;;;;;;;4.40;1.60;;;7.70;89.20;;;;;;5095376;28;20514;-66
2022/11/06 08:55:52;;;;;;;5.78;1.80;;;7.50;88.40;;;;;;5095657;28;20219;-65
2022/11/06 08:58:20;;;;;;;4.07;2.50;;;7.50;90.50;;;;;;5095041;28;20224;-66
2022/11/06 09:00:49;;;;;;;4.68;2.63;;;7.50;90.50;;;;;;5095170;28;20197;-66
2022/11/06 09:03:17;;;;;;;21.42;17.63;;;7.40;90.50;;;;;;5095186;28;20184;-66
2022/11/06 09:05:45;;;;;;;10.85;9.55;;;7.40;90.80;;;;;;5095270;28;20185;-65
2022/11/06 09:08:13;;;;;;;5.20;4.00;;;7.30;90.80;;;;;;5094967;28;20189;-68
2022/11/06 09:10:41;;;;;;;9.10;3.20;;;7.40;91.70;;;;;;5095206;28;20185;-65
2022/11/06 09:13:09;;;;;;;3.70;3.28;;;7.50;92.10;;;;;;5095093;28;20578;-70
2022/11/06 09:15:36;;;;;;;4.28;2.10;;;7.60;91.30;;;;;;5095049;28;20181;-66
2022/11/06 09:18:05;;;;;;;15.70;3.33;;;7.70;91.10;;;;;;5091392;28;20189;-66
2022/11/06 09:20:32;;;;;;;4.22;2.75;;;7.90;91.40;;;;;;5093570;28;20181;-66
2022/11/06 09:23:02;;;;;;;4.13;3.13;;;8.00;92.00;;;;;;5095266;28;20238;-66
2022/11/06 09:25:29;;;;;;;3.65;2.67;;;8.10;91.00;;;;;;5093523;28;20230;-66
2022/11/06 09:27:58;;;;;;;6.57;4.20;;;8.30;91.40;;;;;;5094159;28;20221;-67
2022/11/06 09:30:27;;;;;;;5.38;4.30;;;8.50;91.30;;;;;;5093519;28;20558;-74
2022/11/06 09:32:56;;;;;;;5.68;3.95;;;8.70;90.50;;;;;;5094992;28;20189;-66
2022/11/06 09:35:26;;;;;;;7.53;5.35;;;8.80;90.80;;;;;;5093546;28;20183;-67
2022/11/06 09:37:53;;;;;;;17.83;13.50;;;9.00;91.00;;;;;;5090705;28;20234;-68
2022/11/06 09:40:26;;;;;;;6.55;4.63;;;9.20;90.80;;;;;;5094073;28;20212;-66
2022/11/06 09:43:02;;;;;;;5.57;4.07;;;9.40;90.80;;;;;;5094526;28;20239;-67
2022/11/06 09:45:33;;;;;;;38.92;23.50;;;9.50;90.70;;;;;;5093789;28;20577;-67
2022/11/06 09:48:07;;;;;;;29.33;17.92;;;9.70;90.80;;;;;;5094073;28;20181;-66
2022/11/06 09:50:39;;;;;;;5.57;3.55;;;9.90;90.60;;;;;;5093918;28;20185;-67
2022/11/06 09:53:13;;;;;;;4.93;2.90;;;10.10;88.80;;;;;;5093978;28;20193;-66
2022/11/06 09:55:43;;;;;;;4.05;3.20;;;10.20;87.70;;;;;;5093713;28;20747;-68
2022/11/06 09:58:15;;;;;;;4.55;2.75;;;10.10;85.80;;;;;;5093705;28;20189;-66
2022/11/06 10:00:42;;;;;;;6.22;3.00;;;10.10;85.50;;;;;;5093377;28;20606;-69
2022/11/06 10:03:16;;;;;;;5.68;4.70;;;10.20;87.60;;;;;;5094254;28;20193;-66
2022/11/06 10:05:47;;;;;;;11.93;7.03;;;10.40;86.80;;;;;;5093041;28;20185;-66
2022/11/06 10:08:19;;;;;;;9.07;6.97;;;10.50;85.40;;;;;;5094007;28;20189;-66
2022/11/06 10:10:58;;;;;;;6.70;5.75;;;10.50;86.60;;;;;;5093072;28;20212;-66
2022/11/06 10:13:43;;;;;;;5.38;4.20;;;10.60;86.60;;;;;;5094125;28;20602;-67
2022/11/06 10:16:16;;;;;;;5.93;4.80;;;10.80;86.80;;;;;;5093115;28;20264;-67
2022/11/06 10:18:55;;;;;;;9.45;5.40;;;10.90;86.60;;;;;;5093624;28;20565;-66
2022/11/06 10:21:29;;;;;;;7.97;5.93;;;11.20;86.60;;;;;;5092971;28;20267;-67
2022/11/06 10:24:01;;;;;;;6.68;5.35;;;11.50;86.50;;;;;;5093694;28;20639;-67
2022/11/06 10:26:36;;;;;;;6.18;4.47;;;12.00;86.50;;;;;;5093174;28;20214;-67
2022/11/06 10:29:23;;;;;;;7.57;4.70;;;12.60;82.30;;;;;;5093582;28;20182;-67
2022/11/06 10:32:07;;;;;;;5.63;4.43;;;13.00;80.90;;;;;;5087776;28;20514;-67
2022/11/06 10:34:39;;;;;;;6.30;4.80;;;14.30;81.50;;;;;;5092722;28;20218;-67
2022/11/06 10:37:17;;;;;;;5.43;4.73;;;15.70;75.10;;;;;;5092522;28;20492;-67
2022/11/06 10:39:46;;;;;;;6.20;4.57;;;17.10;68.50;;;;;;5092398;28;20478;-67
2022/11/06 10:42:17;;;;;;;6.90;6.20;;;17.30;62.90;;;;;;5085804;28;20431;-65
2022/11/06 10:44:49;;;;;;;7.43;6.07;;;17.70;62.90;;;;;;5092620;28;20443;-66
2022/11/06 10:47:20;;;;;;;6.13;5.20;;;19.60;57.90;;;;;;5093711;28;20489;-66
2022/11/06 10:49:50;;;;;;;4.90;4.00;;;20.50;53.70;;;;;;5092685;28;20431;-66
2022/11/06 10:52:46;;;;;;;4.40;3.67;;;20.90;51.20;;;;;;5092636;28;20902;-66
2022/11/06 10:55:41;;;;;;;5.00;4.47;;;22.20;48.80;;;;;;5090880;28;20450;-67
2022/11/06 10:58:10;;;;;;;6.80;4.40;;;23.80;45.20;;;;;;5093046;28;20469;-67
2022/11/06 11:00:37;;;;;;;5.23;4.73;;;25.10;41.00;;;;;;5093227;28;20474;-66
2022/11/06 11:03:07;;;;;;;4.80;4.13;;;26.20;39.40;;;;;;5089294;28;20439;-66
2022/11/06 11:05:39;;;;;;;4.50;3.53;;;27.30;36.00;;;;;;5093124;28;20435;-67
2022/11/06 11:08:31;;;;;;;4.33;3.80;;;28.00;33.90;;;;;;5092055;28;20827;-67
2022/11/06 11:11:03;;;;;;;3.20;2.40;;;28.90;31.90;;;;;;5086717;28;20475;-68
2022/11/06 11:13:32;;;;;;;3.80;3.40;;;29.50;31.00;;;;;;5089720;28;20448;-67
2022/11/06 11:16:02;;;;;;;4.07;2.80;;;30.10;28.90;;;;;;5091172;28;20431;-67
2022/11/06 11:18:31;;;;;;;3.73;2.67;;;30.60;28.30;;;;;;5090610;28;20454;-67
2022/11/06 11:21:23;;;;;;;2.80;2.20;;;31.00;26.80;;;;;;5090154;28;20471;-67
2022/11/06 11:24:08;;;;;;;3.47;3.17;;;30.90;26.40;;;;;;5091038;28;20531;-67
2022/11/06 11:26:39;;;;;;;3.13;2.27;;;31.10;26.60;;;;;;5090650;28;20887;-66
2022/11/06 11:29:19;;;;;;;3.80;3.00;;;31.30;26.40;;;;;;5090559;28;20446;-68
2022/11/06 11:31:52;;;;;;;3.60;3.20;;;31.50;25.30;;;;;;5091241;28;20776;-68
2022/11/06 11:34:22;;;;;;;4.00;3.30;;;31.70;24.70;;;;;;5090693;28;20921;-66
2022/11/06 11:36:56;;;;;;;5.03;3.10;;;32.10;25.30;;;;;;5091406;28;20445;-65
2022/11/06 11:39:30;;;;;;;3.37;2.70;;;32.60;23.70;;;;;;5090608;28;20466;-65
2022/11/06 11:42:46;;;;;;;3.83;2.07;;;32.80;23.60;;;;;;5090856;28;20781;-65
2022/11/06 11:45:17;;;;;;;6.20;2.50;;;33.20;22.70;;;;;;5090346;28;20445;-66
2022/11/06 11:47:46;;;;;;;2.60;1.67;;;33.40;22.20;;;;;;5091085;28;20443;-65
2022/11/06 11:50:26;;;;;;;2.50;1.47;;;33.30;22.10;;;;;;5090521;28;20522;-65
2022/11/06 11:53:04;;;;;;;2.60;1.80;;;33.40;20.80;;;;;;5090546;28;20439;-67
2022/11/06 11:55:39;;;;;;;2.63;1.57;;;33.30;21.20;;;;;;5089799;28;20488;-67
2022/11/06 11:58:18;;;;;;;2.60;1.77;;;33.40;20.90;;;;;;5087213;28;20974;-66
2022/11/06 12:01:02;;;;;;;2.10;1.13;;;33.30;20.70;;;;;;5090739;28;20981;-68
2022/11/06 12:03:34;;;;;;;2.23;1.27;;;33.20;20.80;;;;;;5089050;28;20496;-67
2022/11/06 12:06:09;;;;;;;2.40;1.60;;;33.20;20.60;;;;;;5090597;28;20485;-67
2022/11/06 12:08:38;;;;;;;1.97;1.00;;;33.00;19.70;;;;;;5090351;28;20932;-66
2022/11/06 12:11:08;;;;;;;3.23;2.93;;;32.50;19.80;;;;;;5089738;28;20471;-67
2022/11/06 12:13:35;;;;;;;2.00;0.97;;;32.60;20.70;;;;;;5086299;28;20504;-66
2022/11/06 12:16:09;;;;;;;2.10;0.93;;;32.90;19.50;;;;;;5090781;28;20646;-66
2022/11/06 12:18:40;;;;;;;2.27;1.00;;;32.90;20.00;;;;;;5090849;28;20431;-67
2022/11/06 12:21:12;;;;;;;1.90;1.10;;;33.00;20.20;;;;;;5088709;28;20478;-66
2022/11/06 12:23:45;;;;;;;2.00;0.70;;;33.00;20.40;;;;;;5094370;28;20523;-66
2022/11/06 12:26:25;;;;;;;2.50;1.07;;;32.90;19.80;;;;;;5090131;28;20469;-66
2022/11/06 12:28:57;;;;;;;1.80;0.83;;;32.70;19.90;;;;;;5101859;28;20422;-66
2022/11/06 12:31:41;;;;;;;1.90;0.70;;;32.20;19.10;;;;;;5100127;28;20518;-66
2022/11/06 12:34:14;;;;;;;1.80;0.70;;;31.70;19.90;;;;;;5100084;28;20436;-68
2022/11/06 12:36:46;;;;;;;1.77;0.80;;;31.10;20.10;;;;;;5099120;28;20509;-66
2022/11/06 12:39:23;;;;;;;2.20;1.30;;;30.70;21.00;;;;;;5096022;28;20959;-66
2022/11/06 12:41:55;;;;;;;1.83;0.90;;;30.30;21.80;;;;;;5097753;28;20442;-66
2022/11/06 12:44:22;;;;;;;1.80;0.80;;;29.80;22.00;;;;;;5100746;28;20446;-66
2022/11/06 12:46:58;;;;;;;2.27;1.10;;;28.70;22.90;;;;;;5095809;28;20470;-66
2022/11/06 12:50:04;;;;;;;1.80;0.80;;;28.20;23.80;;;;;;5093491;28;20972;-66
2022/11/06 12:52:48;;;;;;;1.97;0.90;;;28.00;24.10;;;;;;5100321;28;20462;-66
2022/11/06 12:55:20;;;;;;;2.40;0.90;;;27.50;24.30;;;;;;5099017;28;20473;-66
2022/11/06 12:58:04;;;;;;;2.40;0.90;;;26.80;25.40;;;;;;5100340;28;20434;-69
2022/11/06 13:00:37;;;;;;;2.10;0.90;;;26.10;25.70;;;;;;5096184;28;20482;-66
2022/11/06 13:03:24;;;;;;;2.10;1.10;;;25.50;26.90;;;;;;5101412;28;20439;-66
2022/11/06 13:05:59;;;;;;;2.40;1.00;;;24.90;27.60;;;;;;5096459;28;20789;-68
2022/11/06 13:08:41;;;;;;;2.10;1.10;;;24.30;28.30;;;;;;5094233;28;20432;-67
2022/11/06 13:11:21;;;;;;;2.10;0.90;;;24.00;28.60;;;;;;5101848;28;20450;-67
2022/11/06 13:14:08;;;;;;;2.87;1.40;;;23.50;29.40;;;;;;5100685;28;20989;-66
2022/11/06 13:16:42;;;;;;;2.20;1.20;;;23.00;30.00;;;;;;5096645;28;20910;-68
2022/11/06 13:19:27;;;;;;;2.30;1.10;;;22.50;31.20;;;;;;5098884;28;20855;-67
2022/11/06 13:22:24;;;;;;;2.67;1.30;;;22.00;32.10;;;;;;5102450;28;20525;-66
2022/11/06 13:24:59;;;;;;;2.20;1.20;;;21.50;33.30;;;;;;5100104;28;20442;-66
2022/11/06 13:27:36;;;;;;;2.33;1.40;;;21.00;34.70;;;;;;5093151;28;20485;-66
2022/11/06 13:30:12;;;;;;;2.60;1.60;;;20.80;35.70;;;;;;5091425;28;20439;-67